Date,TemperatureHighF,TemperatureAvgF,TemperatureLowF,DewpointHighF,DewpointAvgF,DewpointLowF,HumidityHigh,HumidityAvg,HumidityLow,PressureMaxIn,PressureMinIn,WindSpeedMaxMPH,WindSpeedAvgMPH,GustSpeedMaxMPH,PrecipitationSumIn
2013-3-1,31.6,26.0,19.5,21.5,19.3,15.5,84,76,63,30.40,30.25,15,10,19,0.00
2013-3-2,42.0,28.1,13.7,25.9,19.4,11.3,92,72,48,30.40,30.10,8,4,12,0.00
2013-3-3,44.9,35.6,27.7,33.9,28.7,23.8,87,76,64,30.10,29.67,15,8,18,0.00
2013-3-4,40.4,34.4,28.0,33.5,29.5,21.9,95,82,70,30.06,29.62,17,7,19,0.00
2013-3-5,34.6,27.9,21.8,22.5,19.5,16.5,82,71,57,30.43,30.05,25,14,30,0.00
2013-3-6,40.4,28.3,19.5,23.8,20.1,15.6,92,73,47,30.47,30.25,12,6,17,0.00
2013-3-7,55.7,37.4,24.7,31.0,24.4,-99.9,83,64,36,30.28,30.06,14,-3,23,0.00
2013-3-8,60.0,43.9,29.4,42.4,34.3,25.7,91,70,50,30.16,29.87,17,9,22,0.10
2013-3-9,58.9,48.1,34.2,53.8,44.9,32.4,95,89,82,29.87,29.49,20,9,31,0.13
2013-3-10,34.2,26.2,21.4,32.4,24.9,19.9,97,95,92,30.00,29.67,25,20,29,0.03
2013-3-11,33.2,24.0,14.4,24.3,19.2,11.6,94,82,62,30.06,29.93,18,7,21,0.05
2013-3-12,34.1,29.4,23.4,26.0,22.9,18.8,88,77,68,30.37,30.05,17,8,22,0.01
2013-3-13,42.6,28.3,15.4,28.4,21.0,13.0,93,76,51,30.49,30.25,11,4,18,0.00
2013-3-14,59.1,44.8,33.0,43.7,34.7,23.3,82,68,54,30.25,30.04,11,4,18,0.00
2013-3-15,62.9,49.7,39.9,46.9,40.7,33.9,92,72,50,30.04,29.67,10,5,18,0.00
2013-3-16,42.4,31.9,27.0,40.0,27.8,23.7,93,85,75,30.18,29.81,18,9,24,0.00
2013-3-17,46.7,34.6,25.1,33.5,27.4,21.8,91,76,58,30.16,29.73,13,8,19,0.01
2013-3-18,41.4,35.5,29.5,35.2,23.8,15.8,96,65,39,30.08,29.69,21,10,27,0.04
2013-3-19,51.8,35.1,23.6,34.3,21.7,16.9,82,60,32,30.35,30.07,17,5,21,0.00
2013-3-20,38.3,26.5,16.9,19.6,12.9,5.6,81,58,37,30.43,30.12,13,7,18,0.00
2013-3-21,32.3,26.7,21.2,22.1,18.1,13.7,89,70,61,30.12,29.92,11,5,18,0.00
2013-3-22,34.1,30.2,27.2,26.8,23.0,19.6,89,75,60,30.05,29.98,8,3,18,0.02
2013-3-23,36.8,31.7,29.0,30.6,26.6,22.2,94,82,65,30.12,30.02,10,5,14,0.02
2013-3-24,29.4,26.5,23.6,27.6,21.3,16.8,94,81,69,30.15,30.06,19,14,23,0.00
2013-3-25,30.1,26.9,24.5,25.1,22.0,19.9,91,81,70,30.39,30.14,21,14,24,0.00
2013-3-26,42.7,31.8,19.9,24.6,20.1,14.9,84,63,42,30.42,30.24,8,4,9,0.00
2013-3-27,52.7,39.3,27.1,33.5,27.8,21.9,82,64,46,30.27,30.15,12,6,18,0.00
2013-3-28,59.7,45.5,29.9,36.4,32.1,27.3,90,62,37,30.24,30.11,8,3,18,0.00
2013-3-29,69.2,54.3,36.8,41.4,35.3,30.7,86,53,27,30.19,29.98,13,6,21,0.00
2013-3-30,65.9,56.9,49.9,56.0,46.7,38.8,97,71,41,30.04,29.85,18,7,24,0.73
2013-3-31,58.0,49.4,33.4,43.9,35.5,27.9,94,62,32,30.11,29.90,15,8,19,0.05